createdAt,value
2022-10-11T00:01:46.409Z,96.81
2022-10-11T00:04:19.093Z,97.21
2022-10-11T00:06:54.796Z,96.66
2022-10-11T00:09:27.485Z,96.92
2022-10-11T00:14:33.948Z,96.86
2022-10-11T00:17:09.317Z,96.61
2022-10-11T00:19:41.858Z,96.71
2022-10-11T00:22:14.377Z,96.81
2022-10-11T00:24:46.915Z,96.78
2022-10-11T00:27:19.724Z,96.83
2022-10-11T00:29:52.245Z,96.73
2022-10-11T00:32:24.734Z,96.85
2022-10-11T00:34:59.637Z,96.86
2022-10-11T00:37:35.386Z,96.54
2022-10-11T00:40:16.250Z,96.68
2022-10-11T00:42:51.613Z,96.34
2022-10-11T00:45:27.079Z,96.83
2022-10-11T00:48:05.317Z,96.68
2022-10-11T00:50:37.888Z,96.42
2022-10-11T00:53:12.207Z,96.80
2022-10-11T00:55:59.325Z,96.54
2022-10-11T00:58:36.318Z,96.83
2022-10-11T01:01:09.432Z,96.64
2022-10-11T01:03:42.487Z,96.48
2022-10-11T01:06:14.994Z,97.02
2022-10-11T01:08:47.545Z,96.94
2022-10-11T01:11:24.461Z,96.81
2022-10-11T01:14:37.614Z,96.44
2022-10-11T01:17:23.528Z,97.11
2022-10-11T01:20:36.540Z,96.73
2022-10-11T01:23:45.277Z,96.68
2022-10-11T01:27:01.079Z,96.69
2022-10-11T01:29:54.813Z,96.74
2022-10-11T01:32:37.883Z,96.75
2022-10-11T01:35:23.281Z,97.14
2022-10-11T01:38:16.276Z,96.98
2022-10-11T01:41:03.238Z,97.03
2022-10-11T01:43:40.800Z,97.22
2022-10-11T01:46:15.398Z,96.90
2022-10-11T01:48:51.654Z,97.04
2022-10-11T01:51:42.894Z,96.76
2022-10-11T01:55:04.392Z,97.27
2022-10-11T01:58:07.525Z,96.83
2022-10-11T02:01:21.908Z,96.96
2022-10-11T02:04:21.905Z,97.33
2022-10-11T02:07:23.168Z,97.47
2022-10-11T02:10:13.266Z,97.29
2022-10-11T02:13:12.205Z,96.74
2022-10-11T02:15:49.095Z,96.73
2022-10-11T02:18:29.626Z,96.74
2022-10-11T02:21:08.623Z,97.09
2022-10-11T02:23:51.975Z,97.00
2022-10-11T02:26:30.326Z,97.02
2022-10-11T02:29:08.620Z,97.31
2022-10-11T02:31:43.728Z,97.08
2022-10-11T02:34:36.184Z,96.81
2022-10-11T02:37:42.286Z,96.89
2022-10-11T02:40:36.016Z,97.12
2022-10-11T02:43:28.100Z,97.02
2022-10-11T02:46:03.309Z,97.18
2022-10-11T02:48:37.389Z,97.11
2022-10-11T02:51:14.711Z,97.27
2022-10-11T02:53:47.474Z,97.23
2022-10-11T02:56:20.044Z,96.98
2022-10-11T02:58:52.539Z,97.03
2022-10-11T03:01:25.682Z,97.16
2022-10-11T03:03:58.259Z,97.02
2022-10-11T03:06:31.076Z,97.44
2022-10-11T03:09:04.233Z,96.78
2022-10-11T03:11:36.830Z,96.93
2022-10-11T03:14:09.415Z,96.76
2022-10-11T03:16:42.005Z,97.11
2022-10-11T03:19:19.012Z,97.36
2022-10-11T03:21:52.166Z,97.59
2022-10-11T03:24:24.657Z,97.13
2022-10-11T03:26:57.129Z,97.12
2022-10-11T03:29:29.643Z,97.13
2022-10-11T03:32:02.202Z,97.28
2022-10-11T03:34:34.725Z,96.95
2022-10-11T03:37:07.278Z,97.07
2022-10-11T03:39:39.772Z,97.16
2022-10-11T03:42:13.319Z,97.39
2022-10-11T03:44:45.942Z,97.00
2022-10-11T03:47:18.835Z,97.09
2022-10-11T03:49:51.353Z,97.34
2022-10-11T03:52:23.854Z,97.17
2022-10-11T03:54:56.355Z,97.31
2022-10-11T03:57:28.883Z,96.87
2022-10-11T04:00:01.410Z,97.47
2022-10-11T04:02:38.920Z,97.06
2022-10-11T04:05:12.647Z,97.56
2022-10-11T04:07:45.193Z,97.12
2022-10-11T04:10:18.384Z,97.40
2022-10-11T04:12:50.883Z,97.21
2022-10-11T04:15:23.509Z,97.42
2022-10-11T04:17:56.092Z,97.58
2022-10-11T04:20:28.623Z,97.75
2022-10-11T04:23:01.213Z,97.28
2022-10-11T04:25:33.672Z,97.79
2022-10-11T04:28:08.006Z,97.24
2022-10-11T04:30:40.621Z,97.16
2022-10-11T04:33:13.123Z,97.33
2022-10-11T04:35:45.627Z,97.89
2022-10-11T04:38:18.128Z,97.46
2022-10-11T04:40:51.031Z,97.44
2022-10-11T04:43:23.522Z,97.15
2022-10-11T04:45:56.012Z,96.98
2022-10-11T04:48:28.618Z,96.99
2022-10-11T04:51:01.122Z,97.61
2022-10-11T04:53:33.620Z,97.29
2022-10-11T04:56:11.037Z,96.99
2022-10-11T04:58:44.258Z,97.48
2022-10-11T05:01:16.902Z,97.39
2022-10-11T05:03:49.648Z,97.98
2022-10-11T05:06:22.106Z,97.37
2022-10-11T05:08:54.773Z,97.59
2022-10-11T05:11:27.443Z,97.42
2022-10-11T05:14:00.051Z,97.76
2022-10-11T05:16:32.596Z,97.50
2022-10-11T05:19:05.214Z,97.75
2022-10-11T05:21:37.777Z,97.75
2022-10-11T05:24:10.387Z,97.33
2022-10-11T05:26:42.902Z,97.63
2022-10-11T05:29:16.071Z,97.59
2022-10-11T05:31:49.666Z,97.48
2022-10-11T05:34:22.195Z,97.46
2022-10-11T05:36:56.527Z,97.35
2022-10-11T05:39:29.264Z,97.12
2022-10-11T05:42:03.190Z,97.53
2022-10-11T05:44:37.295Z,97.22
2022-10-11T05:47:09.781Z,97.66
2022-10-11T05:49:42.337Z,97.77
2022-10-11T05:52:19.678Z,97.21
2022-10-11T05:54:52.362Z,97.82
2022-10-11T05:57:24.847Z,97.41
2022-10-11T05:59:57.363Z,97.68
2022-10-11T06:02:30.058Z,97.42
2022-10-11T06:05:02.590Z,97.98
2022-10-11T06:07:37.403Z,97.90
2022-10-11T06:10:10.529Z,97.64
2022-10-11T06:12:43.163Z,97.34
2022-10-11T06:15:15.905Z,97.63
2022-10-11T06:17:48.417Z,97.48
2022-10-11T06:20:20.899Z,98.05
2022-10-11T06:22:53.423Z,97.53
2022-10-11T06:25:25.982Z,97.64
2022-10-11T06:27:58.552Z,97.77
2022-10-11T06:30:31.044Z,97.62
2022-10-11T06:33:05.011Z,98.09
2022-10-11T06:35:37.755Z,98.02
2022-10-11T06:38:10.241Z,97.67
2022-10-11T06:40:42.721Z,97.54
2022-10-11T06:43:15.198Z,97.80
2022-10-11T06:45:47.724Z,97.43
2022-10-11T06:48:20.321Z,98.06
2022-10-11T06:50:59.914Z,97.76
2022-10-11T06:53:33.135Z,98.14
2022-10-11T06:56:10.332Z,98.38
2022-10-11T06:58:42.826Z,98.33
2022-10-11T07:01:18.925Z,98.32
2022-10-11T07:03:54.826Z,98.30
2022-10-11T07:06:29.614Z,97.94
2022-10-11T07:09:02.130Z,98.26
2022-10-11T07:11:35.405Z,98.45
2022-10-11T07:14:08.136Z,98.22
2022-10-11T07:16:40.681Z,97.93
2022-10-11T07:19:13.245Z,98.07
2022-10-11T07:21:45.791Z,97.94
2022-10-11T07:24:18.359Z,98.02
2022-10-11T07:26:51.050Z,98.09
2022-10-11T07:29:23.517Z,98.01
2022-10-11T07:31:56.019Z,98.24
2022-10-11T07:34:28.506Z,98.39
2022-10-11T07:37:01.048Z,98.22
2022-10-11T07:39:33.764Z,98.10
2022-10-11T07:42:06.744Z,98.29
2022-10-11T07:44:42.250Z,98.34
2022-10-11T07:47:14.797Z,98.29
2022-10-11T07:49:47.297Z,98.30
2022-10-11T07:52:19.814Z,98.51
2022-10-11T07:54:52.289Z,98.22
2022-10-11T07:57:24.766Z,98.16
2022-10-11T07:59:57.288Z,98.48
2022-10-11T08:02:29.759Z,97.96
2022-10-11T08:05:02.899Z,97.93
2022-10-11T08:07:36.809Z,97.86
2022-10-11T08:10:10.197Z,97.52
2022-10-11T08:12:42.727Z,97.41
2022-10-11T08:15:15.967Z,97.61
2022-10-11T08:17:48.494Z,97.57
2022-10-11T08:20:20.974Z,97.36
2022-10-11T08:22:53.486Z,97.67
2022-10-11T08:25:26.635Z,97.41
2022-10-11T08:27:59.177Z,97.21
2022-10-11T08:30:32.444Z,96.71
2022-10-11T08:33:08.497Z,96.47
2022-10-11T08:35:41.259Z,96.31
2022-10-11T08:38:14.586Z,95.29
2022-10-11T08:40:59.418Z,95.03
2022-10-11T08:43:50.513Z,92.71
2022-10-11T08:46:31.852Z,92.59
2022-10-11T08:49:07.149Z,91.85
2022-10-11T08:51:50.765Z,89.53
2022-10-11T08:54:37.130Z,87.70
2022-10-11T08:57:16.830Z,86.59
2022-10-11T08:59:58.846Z,85.79
2022-10-11T09:03:07.912Z,83.34
2022-10-11T09:06:07.403Z,81.70
2022-10-11T09:08:55.481Z,81.03
2022-10-11T09:11:56.752Z,80.17
2022-10-11T09:14:50.753Z,81.06
2022-10-11T09:17:50.971Z,81.59
2022-10-11T09:20:47.801Z,80.81
2022-10-11T09:23:45.294Z,79.86
2022-10-11T09:26:34.685Z,77.69
2022-10-11T09:29:45.917Z,76.52
2022-10-11T09:32:23.568Z,75.79
2022-10-11T09:35:09.217Z,74.71
2022-10-11T09:38:44.705Z,75.54
2022-10-11T09:41:33.178Z,74.56
2022-10-11T09:44:07.150Z,74.53
2022-10-11T09:46:45.097Z,76.32
2022-10-11T09:49:22.743Z,74.42
2022-10-11T09:52:00.862Z,73.73
2022-10-11T09:54:44.442Z,71.97
2022-10-11T09:57:30.963Z,73.20
2022-10-11T10:00:27.385Z,70.24
2022-10-11T10:03:04.341Z,66.99
2022-10-11T10:05:38.378Z,69.68
2022-10-11T10:08:10.813Z,69.03
2022-10-11T10:10:59.414Z,65.74
2022-10-11T10:13:54.182Z,66.38
2022-10-11T10:16:29.474Z,68.64
2022-10-11T10:19:16.598Z,69.37
2022-10-11T10:21:53.260Z,69.74
2022-10-11T10:24:40.774Z,66.81
2022-10-11T10:27:23.569Z,63.88
2022-10-11T10:30:10.324Z,63.48
2022-10-11T10:32:59.800Z,59.73
2022-10-11T10:35:42.902Z,59.07
2022-10-11T10:38:33.689Z,59.49
2022-10-11T10:41:12.591Z,58.76
2022-10-11T10:43:55.722Z,58.43
2022-10-11T10:47:10.825Z,58.45
2022-10-11T10:50:03.058Z,58.61
2022-10-11T10:53:10.255Z,60.47
2022-10-11T10:55:50.633Z,58.00
2022-10-11T10:58:56.459Z,56.40
2022-10-11T11:01:38.111Z,57.92
2022-10-11T11:04:31.979Z,58.36
2022-10-11T11:07:25.938Z,58.01
2022-10-11T11:10:06.982Z,55.71
2022-10-11T11:12:54.211Z,55.67
2022-10-11T11:15:37.612Z,55.15
2022-10-11T11:18:57.939Z,54.02
2022-10-11T11:22:16.035Z,53.75
2022-10-11T11:25:24.726Z,55.25
2022-10-11T11:28:13.885Z,55.95
2022-10-11T11:31:11.479Z,54.31
2022-10-11T11:34:26.254Z,54.35
2022-10-11T11:37:06.629Z,54.30
2022-10-11T11:39:53.031Z,53.70
2022-10-11T11:42:41.610Z,54.94
2022-10-11T11:45:28.173Z,53.65
2022-10-11T11:48:10.881Z,55.06
2022-10-11T11:50:56.453Z,53.29
2022-10-11T11:54:13.667Z,53.84
2022-10-11T11:57:13.044Z,52.70
2022-10-11T12:00:15.093Z,53.22
2022-10-11T12:02:57.172Z,54.01
2022-10-11T12:05:35.034Z,54.30
2022-10-11T12:08:25.543Z,53.62
2022-10-11T12:11:02.387Z,54.60
2022-10-11T12:13:38.958Z,54.96
2022-10-11T12:16:16.836Z,51.73
2022-10-11T12:19:03.877Z,52.62
2022-10-11T12:21:39.889Z,52.65
2022-10-11T12:24:24.187Z,50.68
2022-10-11T12:26:58.944Z,51.42
2022-10-11T12:29:50.998Z,51.66
2022-10-11T12:32:26.379Z,50.88
2022-10-11T12:35:53.040Z,50.23
2022-10-11T12:38:37.806Z,50.78
2022-10-11T12:41:10.309Z,52.35
2022-10-11T12:43:48.969Z,51.10
2022-10-11T12:46:33.326Z,50.24
2022-10-11T12:49:36.093Z,50.40
2022-10-11T12:52:41.678Z,49.79
2022-10-11T12:55:44.177Z,50.40
2022-10-11T12:58:27.577Z,50.42
2022-10-11T13:00:59.993Z,51.49
2022-10-11T13:04:03.058Z,50.96
2022-10-11T13:06:46.132Z,49.95
2022-10-11T13:09:34.617Z,51.36
2022-10-11T13:12:19.434Z,51.28
2022-10-11T13:15:06.962Z,51.09
2022-10-11T13:17:41.056Z,49.93
2022-10-11T13:20:23.835Z,49.61
2022-10-11T13:22:57.429Z,50.47
2022-10-11T13:25:37.759Z,51.61
2022-10-11T13:28:10.595Z,51.38
2022-10-11T13:30:48.582Z,51.19
2022-10-11T13:33:32.068Z,51.75
2022-10-11T13:36:13.088Z,51.69
2022-10-11T13:39:01.684Z,50.20
2022-10-11T13:41:35.238Z,50.97
2022-10-11T13:44:09.495Z,50.12
2022-10-11T13:46:42.756Z,49.55
2022-10-11T13:49:39.086Z,50.91
2022-10-11T13:52:17.898Z,51.17
2022-10-11T13:54:53.529Z,51.81
2022-10-11T13:57:44.778Z,51.63
2022-10-11T14:00:17.548Z,52.34
2022-10-11T14:03:01.115Z,52.92
2022-10-11T14:05:59.169Z,52.62
2022-10-11T14:08:39.907Z,55.30
2022-10-11T14:11:14.434Z,53.46
2022-10-11T14:13:49.960Z,52.69
2022-10-11T14:16:22.664Z,54.26
2022-10-11T14:18:58.180Z,53.70
2022-10-11T14:21:49.320Z,53.13
2022-10-11T14:24:22.677Z,52.54
2022-10-11T14:26:57.624Z,52.27
2022-10-11T14:29:35.944Z,52.70
2022-10-11T14:32:17.650Z,52.50
2022-10-11T14:34:52.796Z,51.16
2022-10-11T14:37:26.360Z,51.76
2022-10-11T14:39:59.149Z,52.56
2022-10-11T14:42:31.794Z,50.94
2022-10-11T14:45:04.546Z,52.40
2022-10-11T14:47:43.300Z,51.71
2022-10-11T14:50:27.763Z,50.50
2022-10-11T14:53:03.424Z,51.04
2022-10-11T14:55:38.821Z,50.52
2022-10-11T14:58:14.368Z,50.65
2022-10-11T15:00:47.238Z,50.60
2022-10-11T15:03:21.284Z,51.14
2022-10-11T15:05:53.884Z,49.08
2022-10-11T15:08:26.478Z,49.29
2022-10-11T15:10:59.131Z,49.62
2022-10-11T15:13:31.758Z,49.53
2022-10-11T15:16:04.845Z,50.07
2022-10-11T15:18:37.533Z,50.16
2022-10-11T15:21:14.401Z,51.66
2022-10-11T15:23:48.851Z,50.82
2022-10-11T15:26:28.246Z,51.02
2022-10-11T15:29:01.008Z,51.73
2022-10-11T15:31:33.638Z,50.72
2022-10-11T15:34:07.147Z,50.52
2022-10-11T15:36:42.212Z,50.07
2022-10-11T15:39:33.848Z,50.74
2022-10-11T15:42:06.889Z,50.97
2022-10-11T15:44:39.466Z,50.24
2022-10-11T15:47:12.369Z,51.08
2022-10-11T15:49:44.883Z,52.13
2022-10-11T15:52:17.309Z,52.37
2022-10-11T15:54:49.864Z,52.41
2022-10-11T15:57:22.575Z,51.72
2022-10-11T15:59:55.235Z,53.06
2022-10-11T16:02:28.451Z,52.38
2022-10-11T16:05:04.293Z,53.18
2022-10-11T16:07:37.049Z,53.68
2022-10-11T16:10:10.181Z,54.31
2022-10-11T16:12:43.556Z,54.24
2022-10-11T16:15:17.419Z,54.21
2022-10-11T16:17:53.207Z,54.01
2022-10-11T16:20:26.193Z,55.33
2022-10-11T16:22:59.993Z,56.48
2022-10-11T16:25:36.328Z,57.80
2022-10-11T16:28:11.937Z,60.32
2022-10-11T16:30:45.041Z,61.28
2022-10-11T16:33:17.784Z,61.17
2022-10-11T16:35:53.081Z,63.88
2022-10-11T16:38:25.911Z,63.43
2022-10-11T16:40:58.843Z,63.78
2022-10-11T16:43:31.813Z,65.52
2022-10-11T16:46:05.120Z,64.76
2022-10-11T16:48:38.103Z,65.19
2022-10-11T16:51:11.368Z,65.73
2022-10-11T16:53:44.212Z,66.60
2022-10-11T16:56:22.492Z,66.96
2022-10-11T16:58:55.736Z,67.63
2022-10-11T17:01:29.776Z,67.98
2022-10-11T17:04:02.759Z,68.43
2022-10-11T17:06:35.750Z,69.69
2022-10-11T17:09:08.525Z,70.00
2022-10-11T17:11:41.105Z,70.77
2022-10-11T17:14:14.355Z,72.97
2022-10-11T17:16:47.078Z,74.86
2022-10-11T17:19:19.589Z,76.52
2022-10-11T17:21:52.098Z,75.86
2022-10-11T17:24:26.193Z,78.43
2022-10-11T17:26:58.697Z,78.48
2022-10-11T17:29:31.373Z,78.25
2022-10-11T17:32:04.571Z,79.17
2022-10-11T17:34:37.256Z,78.13
2022-10-11T17:37:10.115Z,77.88
2022-10-11T17:39:42.863Z,78.58
2022-10-11T17:42:15.411Z,77.80
2022-10-11T17:44:48.082Z,78.86
2022-10-11T17:47:20.584Z,78.63
2022-10-11T17:49:53.315Z,79.82
2022-10-11T17:52:25.941Z,80.30
2022-10-11T17:54:58.565Z,78.82
2022-10-11T17:57:31.097Z,78.64
2022-10-11T18:00:05.850Z,78.63
2022-10-11T18:02:40.220Z,79.20
2022-10-11T18:05:14.588Z,80.45
2022-10-11T18:07:47.082Z,80.70
2022-10-11T18:10:20.603Z,81.11
2022-10-11T18:12:57.164Z,81.33
2022-10-11T18:15:33.438Z,81.15
2022-10-11T18:18:07.316Z,81.76
2022-10-11T18:20:47.420Z,82.58
2022-10-11T18:23:20.010Z,83.23
2022-10-11T18:25:52.638Z,83.77
2022-10-11T18:28:25.347Z,83.67
2022-10-11T18:31:00.419Z,83.98
2022-10-11T18:33:33.037Z,83.76
2022-10-11T18:36:09.255Z,84.68
2022-10-11T18:38:46.716Z,84.85
2022-10-11T18:41:22.421Z,84.90
2022-10-11T18:43:57.490Z,85.34
2022-10-11T18:46:31.252Z,85.73
2022-10-11T18:49:04.581Z,86.01
2022-10-11T18:51:41.037Z,86.02
2022-10-11T18:54:18.374Z,86.76
2022-10-11T18:56:53.609Z,87.25
2022-10-11T18:59:26.188Z,87.01
2022-10-11T19:01:59.106Z,87.17
2022-10-11T19:04:34.257Z,87.14
2022-10-11T19:07:06.884Z,88.14
2022-10-11T19:09:39.634Z,87.84
2022-10-11T19:12:12.496Z,88.37
2022-10-11T19:14:45.233Z,88.60
2022-10-11T19:17:22.489Z,89.24
2022-10-11T19:19:55.209Z,89.42
2022-10-11T19:22:27.804Z,89.90
2022-10-11T19:25:00.639Z,89.85
2022-10-11T19:27:33.185Z,89.80
2022-10-11T19:30:07.057Z,89.45
2022-10-11T19:32:40.079Z,89.73
2022-10-11T19:35:17.660Z,90.19
2022-10-11T19:37:52.754Z,91.07
2022-10-11T19:40:27.272Z,90.86
2022-10-11T19:43:03.026Z,91.19
2022-10-11T19:45:35.775Z,90.82
2022-10-11T19:48:08.681Z,90.86
2022-10-11T19:50:41.561Z,90.69
2022-10-11T19:53:14.339Z,90.95
2022-10-11T19:55:47.032Z,91.08
2022-10-11T19:58:19.896Z,90.80
2022-10-11T20:01:05.481Z,90.80
2022-10-11T20:03:38.931Z,91.31
2022-10-11T20:06:13.516Z,91.69
2022-10-11T20:08:55.924Z,91.66
2022-10-11T20:11:37.955Z,91.45
2022-10-11T20:14:10.924Z,91.81
2022-10-11T20:16:43.669Z,91.64
2022-10-11T20:19:16.579Z,91.29
2022-10-11T20:21:49.340Z,91.13
2022-10-11T20:24:22.063Z,91.31
2022-10-11T20:26:55.520Z,91.71
2022-10-11T20:29:28.185Z,91.49
2022-10-11T20:32:01.088Z,91.52
2022-10-11T20:34:33.651Z,91.86
2022-10-11T20:37:06.450Z,91.88
2022-10-11T20:39:39.170Z,92.10
2022-10-11T20:42:11.922Z,92.16
2022-10-11T20:44:44.563Z,92.24
2022-10-11T20:47:17.392Z,92.63
2022-10-11T20:49:50.098Z,92.64
2022-10-11T20:52:22.666Z,92.64
2022-10-11T20:54:55.249Z,92.50
2022-10-11T20:57:27.958Z,92.79
2022-10-11T21:00:00.751Z,92.95
2022-10-11T21:02:33.606Z,93.02
2022-10-11T21:05:07.321Z,92.92
2022-10-11T21:07:39.892Z,92.75
2022-10-11T21:10:12.739Z,93.12
2022-10-11T21:12:45.385Z,93.07
2022-10-11T21:15:17.956Z,93.28
2022-10-11T21:17:52.415Z,93.78
2022-10-11T21:20:25.938Z,93.62
2022-10-11T21:22:58.552Z,93.53
2022-10-11T21:25:34.090Z,93.24
2022-10-11T21:28:07.697Z,93.89
2022-10-11T21:30:40.278Z,93.69
2022-10-11T21:33:12.764Z,93.89
2022-10-11T21:35:45.301Z,94.16
2022-10-11T21:38:18.031Z,94.00
2022-10-11T21:40:50.532Z,94.23
2022-10-11T21:43:24.767Z,94.12
2022-10-11T21:45:57.473Z,94.15
2022-10-11T21:48:29.963Z,94.04
2022-10-11T21:51:02.568Z,94.09
2022-10-11T21:53:35.193Z,94.19
2022-10-11T21:56:07.878Z,94.38
2022-10-11T21:58:40.636Z,94.77
2022-10-11T22:01:13.248Z,94.88
2022-10-11T22:03:47.169Z,94.84
2022-10-11T22:06:20.901Z,94.84
2022-10-11T22:08:53.472Z,94.90
2022-10-11T22:11:26.981Z,94.70
2022-10-11T22:13:59.547Z,94.73
2022-10-11T22:16:34.431Z,94.78
2022-10-11T22:19:07.034Z,94.99
2022-10-11T22:21:44.118Z,95.26
2022-10-11T22:24:17.703Z,95.32
2022-10-11T22:26:50.205Z,95.08
2022-10-11T22:29:22.717Z,95.08
2022-10-11T22:31:55.244Z,95.42
2022-10-11T22:34:32.058Z,95.20
2022-10-11T22:37:04.698Z,95.48
2022-10-11T22:39:37.243Z,95.57
2022-10-11T22:42:09.755Z,95.46
2022-10-11T22:44:42.325Z,95.43
2022-10-11T22:47:14.892Z,95.36
2022-10-11T22:49:47.394Z,95.16
2022-10-11T22:52:20.017Z,95.37
2022-10-11T22:54:52.517Z,95.31
2022-10-11T22:57:25.140Z,95.44
2022-10-11T22:59:57.717Z,95.78
2022-10-11T23:02:30.243Z,95.58
2022-10-11T23:05:03.175Z,95.67
2022-10-11T23:07:36.135Z,95.52
2022-10-11T23:10:09.405Z,95.05
2022-10-11T23:12:42.243Z,95.39
2022-10-11T23:15:15.364Z,95.46
2022-10-11T23:17:47.954Z,95.80
2022-10-11T23:20:20.471Z,95.73
2022-10-11T23:22:52.922Z,95.69
2022-10-11T23:25:25.469Z,95.75
2022-10-11T23:28:01.159Z,96.02
2022-10-11T23:30:33.965Z,95.62
2022-10-11T23:33:06.466Z,95.82
2022-10-11T23:35:38.982Z,95.60
2022-10-11T23:38:11.507Z,95.94
2022-10-11T23:40:44.116Z,96.08
2022-10-11T23:43:16.650Z,96.05
2022-10-11T23:45:49.406Z,95.88
2022-10-11T23:48:21.957Z,95.97
2022-10-11T23:50:54.539Z,95.65
2022-10-11T23:53:27.091Z,95.81
2022-10-11T23:55:59.729Z,95.96
2022-10-11T23:58:32.576Z,96.11
